sensor_id;sensor_type;location;lat;lon;timestamp;pressure;altitude;pressure_sealevel;temperature;humidity
61014;BME280;46899;47.542;19.082;2024-01-15T00:00:12;99314.47;;;-0.87;100.00
61014;BME280;46899;47.542;19.082;2024-01-15T00:03:15;99298.31;;;-0.89;100.00
61014;BME280;46899;47.542;19.082;2024-01-15T00:06:17;99291.53;;;-0.96;100.00
61014;BME280;46899;47.542;19.082;2024-01-15T00:09:21;99278.75;;;-0.90;100.00
61014;BME280;46899;47.542;19.082;2024-01-15T00:12:23;99287.19;;;-0.79;100.00
61014;BME280;46899;47.542;19.082;2024-01-15T00:15:26;99288.03;;;-0.76;100.00
61014;BME280;46899;47.542;19.082;2024-01-15T00:18:31;99287.16;;;-0.73;100.00
61014;BME280;46899;47.542;19.082;2024-01-15T00:21:34;99274.34;;;-0.67;100.00
61014;BME280;46899;47.542;19.082;2024-01-15T00:24:36;99266.75;;;-0.73;100.00
61014;BME280;46899;47.542;19.082;2024-01-15T00:27:39;99258.19;;;-0.72;100.00
61014;BME280;46899;47.542;19.082;2024-01-15T00:30:42;99241.13;;;-0.67;100.00
61014;BME280;46899;47.542;19.082;2024-01-15T00:33:45;99234.28;;;-0.63;100.00
61014;BME280;46899;47.542;19.082;2024-01-15T00:36:48;99227.53;;;-0.66;100.00
61014;BME280;46899;47.542;19.082;2024-01-15T00:39:51;99229.09;;;-0.53;100.00
61014;BME280;46899;47.542;19.082;2024-01-15T00:42:53;99230.00;;;-0.58;100.00
61014;BME280;46899;47.542;19.082;2024-01-15T00:45:56;99233.44;;;-0.62;100.00
61014;BME280;46899;47.542;19.082;2024-01-15T00:48:59;99234.22;;;-0.54;100.00
61014;BME280;46899;47.542;19.082;2024-01-15T00:52:02;99241.84;;;-0.48;100.00
61014;BME280;46899;47.542;19.082;2024-01-15T00:55:04;99229.94;;;-0.51;100.00
61014;BME280;46899;47.542;19.082;2024-01-15T00:58:07;99224.59;;;-0.28;100.00
61014;BME280;46899;47.542;19.082;2024-01-15T01:01:11;99217.00;;;-0.34;100.00
61014;BME280;46899;47.542;19.082;2024-01-15T01:04:14;99219.69;;;-0.45;100.00
61014;BME280;46899;47.542;19.082;2024-01-15T01:07:17;99210.22;;;-0.37;100.00
61014;BME280;46899;47.542;19.082;2024-01-15T01:10:20;99212.78;;;-0.37;100.00
61014;BME280;46899;47.542;19.082;2024-01-15T01:13:22;99207.00;;;-0.55;100.00
61014;BME280;46899;47.542;19.082;2024-01-15T01:16:25;99211.22;;;-0.50;100.00
61014;BME280;46899;47.542;19.082;2024-01-15T01:19:28;99189.00;;;-0.43;100.00
61014;BME280;46899;47.542;19.082;2024-01-15T01:22:31;99191.56;;;-0.43;100.00
61014;BME280;46899;47.542;19.082;2024-01-15T01:25:33;99188.16;;;-0.47;100.00
61014;BME280;46899;47.542;19.082;2024-01-15T01:28:36;99184.84;;;-0.52;100.00
61014;BME280;46899;47.542;19.082;2024-01-15T01:31:44;99183.09;;;-0.51;100.00
61014;BME280;46899;47.542;19.082;2024-01-15T01:34:48;99174.66;;;-0.58;100.00
61014;BME280;46899;47.542;19.082;2024-01-15T01:37:50;99169.56;;;-0.58;100.00
61014;BME280;46899;47.542;19.082;2024-01-15T01:40:53;99172.97;;;-0.59;100.00
61014;BME280;46899;47.542;19.082;2024-01-15T01:43:56;99161.91;;;-0.59;100.00
61014;BME280;46899;47.542;19.082;2024-01-15T01:46:59;99159.31;;;-0.55;100.00
61014;BME280;46899;47.542;19.082;2024-01-15T01:50:02;99147.37;;;-0.53;100.00
61014;BME280;46899;47.542;19.082;2024-01-15T01:53:05;99144.88;;;-0.59;100.00
61014;BME280;46899;47.542;19.082;2024-01-15T01:56:08;99141.44;;;-0.56;100.00
61014;BME280;46899;47.542;19.082;2024-01-15T01:59:11;99146.56;;;-0.58;100.00
61014;BME280;46899;47.542;19.082;2024-01-15T02:02:15;99126.22;;;-0.64;100.00
61014;BME280;46899;47.542;19.082;2024-01-15T02:05:19;99118.75;;;-0.85;100.00
61014;BME280;46899;47.542;19.082;2024-01-15T02:08:23;99130.63;;;-0.84;100.00
61014;BME280;46899;47.542;19.082;2024-01-15T02:11:25;99119.56;;;-0.85;100.00
61014;BME280;46899;47.542;19.082;2024-01-15T02:14:28;99105.19;;;-0.92;100.00
61014;BME280;46899;47.542;19.082;2024-01-15T02:17:31;99116.34;;;-1.03;100.00
61014;BME280;46899;47.542;19.082;2024-01-15T02:20:34;99118.13;;;-1.11;100.00
61014;BME280;46899;47.542;19.082;2024-01-15T02:23:37;99113.06;;;-1.17;100.00
61014;BME280;46899;47.542;19.082;2024-01-15T02:26:40;99113.09;;;-1.22;100.00
61014;BME280;46899;47.542;19.082;2024-01-15T02:29:43;99119.16;;;-1.33;100.00
61014;BME280;46899;47.542;19.082;2024-01-15T02:32:45;99124.34;;;-1.46;100.00
61014;BME280;46899;47.542;19.082;2024-01-15T02:35:49;99115.91;;;-1.57;100.00
61014;BME280;46899;47.542;19.082;2024-01-15T02:38:54;99099.00;;;-1.70;100.00
61014;BME280;46899;47.542;19.082;2024-01-15T02:41:57;99089.66;;;-1.68;100.00
61014;BME280;46899;47.542;19.082;2024-01-15T02:45:00;99080.38;;;-1.78;100.00
61014;BME280;46899;47.542;19.082;2024-01-15T02:48:03;99079.56;;;-1.84;100.00
61014;BME280;46899;47.542;19.082;2024-01-15T02:51:05;99096.56;;;-1.88;100.00
61014;BME280;46899;47.542;19.082;2024-01-15T02:54:08;99096.59;;;-1.95;100.00
61014;BME280;46899;47.542;19.082;2024-01-15T02:57:11;99091.53;;;-1.98;100.00
61014;BME280;46899;47.542;19.082;2024-01-15T03:00:16;99086.44;;;-2.00;100.00
61014;BME280;46899;47.542;19.082;2024-01-15T03:03:19;99086.50;;;-2.14;100.00
61014;BME280;46899;47.542;19.082;2024-01-15T03:06:21;99084.84;;;-2.18;100.00
61014;BME280;46899;47.542;19.082;2024-01-15T03:09:24;99070.38;;;-2.13;100.00
61014;BME280;46899;47.542;19.082;2024-01-15T03:12:27;99078.03;;;-2.13;100.00
61014;BME280;46899;47.542;19.082;2024-01-15T03:15:30;99058.50;;;-2.12;100.00
61014;BME280;46899;47.542;19.082;2024-01-15T03:18:33;99049.13;;;-2.12;100.00
61014;BME280;46899;47.542;19.082;2024-01-15T03:21:36;99038.09;;;-2.14;100.00
61014;BME280;46899;47.542;19.082;2024-01-15T03:24:39;99046.66;;;-2.19;100.00
61014;BME280;46899;47.542;19.082;2024-01-15T03:27:41;99036.44;;;-2.19;100.00
61014;BME280;46899;47.542;19.082;2024-01-15T03:30:44;99033.03;;;-2.18;100.00
61014;BME280;46899;47.542;19.082;2024-01-15T03:33:47;99055.94;;;-2.14;100.00
61014;BME280;46899;47.542;19.082;2024-01-15T03:36:50;99036.41;;;-2.13;100.00
61014;BME280;46899;47.542;19.082;2024-01-15T03:39:53;99055.09;;;-2.16;100.00
61014;BME280;46899;47.542;19.082;2024-01-15T03:42:56;99058.44;;;-2.03;100.00
61014;BME280;46899;47.542;19.082;2024-01-15T03:45:58;99066.06;;;-2.04;100.00
61014;BME280;46899;47.542;19.082;2024-01-15T03:49:01;99077.88;;;-1.93;100.00
61014;BME280;46899;47.542;19.082;2024-01-15T03:52:04;99073.72;;;-2.01;100.00
61014;BME280;46899;47.542;19.082;2024-01-15T03:55:07;99077.91;;;-1.97;100.00
61014;BME280;46899;47.542;19.082;2024-01-15T03:58:10;99067.78;;;-2.07;100.00
61014;BME280;46899;47.542;19.082;2024-01-15T04:01:12;99066.00;;;-1.92;100.00
61014;BME280;46899;47.542;19.082;2024-01-15T04:04:16;99075.38;;;-1.99;100.00
61014;BME280;46899;47.542;19.082;2024-01-15T04:07:19;99052.56;;;-2.19;100.00
61014;BME280;46899;47.542;19.082;2024-01-15T04:10:22;99058.59;;;-2.39;100.00
61014;BME280;46899;47.542;19.082;2024-01-15T04:13:24;99057.78;;;-2.41;100.00
61014;BME280;46899;47.542;19.082;2024-01-15T04:16:27;99028.09;;;-2.45;100.00
61014;BME280;46899;47.542;19.082;2024-01-15T04:19:30;99028.16;;;-2.57;100.00
61014;BME280;46899;47.542;19.082;2024-01-15T04:22:35;99029.81;;;-2.56;100.00
61014;BME280;46899;47.542;19.082;2024-01-15T04:25:37;99017.16;;;-2.64;100.00
61014;BME280;46899;47.542;19.082;2024-01-15T04:28:40;99010.34;;;-2.65;100.00
61014;BME280;46899;47.542;19.082;2024-01-15T04:31:42;99015.47;;;-2.80;100.00
61014;BME280;46899;47.542;19.082;2024-01-15T04:34:45;99010.41;;;-2.82;100.00
61014;BME280;46899;47.542;19.082;2024-01-15T04:37:48;99007.81;;;-2.72;100.00
61014;BME280;46899;47.542;19.082;2024-01-15T04:40:51;99005.31;;;-2.80;100.00
61014;BME280;46899;47.542;19.082;2024-01-15T04:43:57;99025.69;;;-2.86;100.00
61014;BME280;46899;47.542;19.082;2024-01-15T04:47:03;99010.37;;;-2.77;100.00
61014;BME280;46899;47.542;19.082;2024-01-15T04:50:05;99012.13;;;-2.90;100.00
61014;BME280;46899;47.542;19.082;2024-01-15T04:53:08;99018.06;;;-2.94;100.00
61014;BME280;46899;47.542;19.082;2024-01-15T04:56:14;99002.81;;;-2.91;100.00
61014;BME280;46899;47.542;19.082;2024-01-15T04:59:17;99001.13;;;-2.98;100.00
61014;BME280;46899;47.542;19.082;2024-01-15T05:02:20;99003.72;;;-3.11;100.00
61014;BME280;46899;47.542;19.082;2024-01-15T05:05:23;99004.56;;;-3.14;100.00
61014;BME280;46899;47.542;19.082;2024-01-15T05:08:25;99007.09;;;-3.06;100.00
61014;BME280;46899;47.542;19.082;2024-01-15T05:11:28;99032.53;;;-3.02;100.00
61014;BME280;46899;47.542;19.082;2024-01-15T05:14:31;99027.41;;;-2.96;100.00
61014;BME280;46899;47.542;19.082;2024-01-15T05:17:34;99024.91;;;-3.02;100.00
61014;BME280;46899;47.542;19.082;2024-01-15T05:20:37;99029.97;;;-3.00;100.00
61014;BME280;46899;47.542;19.082;2024-01-15T05:23:40;99027.44;;;-3.00;100.00
61014;BME280;46899;47.542;19.082;2024-01-15T05:26:42;99028.31;;;-3.15;100.00
61014;BME280;46899;47.542;19.082;2024-01-15T05:29:45;99026.63;;;-3.25;100.00
61014;BME280;46899;47.542;19.082;2024-01-15T05:32:48;99019.84;;;-3.29;100.00
61014;BME280;46899;47.542;19.082;2024-01-15T05:35:50;99020.69;;;-3.28;100.00
61014;BME280;46899;47.542;19.082;2024-01-15T05:38:53;99015.63;;;-3.31;100.00
61014;BME280;46899;47.542;19.082;2024-01-15T05:41:56;99021.56;;;-3.37;100.00
61014;BME280;46899;47.542;19.082;2024-01-15T05:44:59;99025.78;;;-3.28;100.00
61014;BME280;46899;47.542;19.082;2024-01-15T05:48:02;99027.50;;;-3.35;100.00
61014;BME280;46899;47.542;19.082;2024-01-15T05:51:04;99027.50;;;-3.42;100.00
61014;BME280;46899;47.542;19.082;2024-01-15T05:54:07;99035.97;;;-3.33;100.00
61014;BME280;46899;47.542;19.082;2024-01-15T05:57:09;99031.72;;;-3.35;100.00
61014;BME280;46899;47.542;19.082;2024-01-15T06:00:12;99029.22;;;-3.41;100.00
61014;BME280;46899;47.542;19.082;2024-01-15T06:03:15;99022.41;;;-3.41;100.00
61014;BME280;46899;47.542;19.082;2024-01-15T06:06:18;99015.63;;;-3.43;100.00
61014;BME280;46899;47.542;19.082;2024-01-15T06:09:21;99003.78;;;-3.32;100.00
61014;BME280;46899;47.542;19.082;2024-01-15T06:12:24;99004.59;;;-3.32;100.00
61014;BME280;46899;47.542;19.082;2024-01-15T06:15:27;99001.22;;;-3.34;100.00
61014;BME280;46899;47.542;19.082;2024-01-15T06:18:29;98997.84;;;-3.30;100.00
61014;BME280;46899;47.542;19.082;2024-01-15T06:21:32;99007.97;;;-3.24;100.00
61014;BME280;46899;47.542;19.082;2024-01-15T06:24:35;99016.41;;;-3.04;100.00
61014;BME280;46899;47.542;19.082;2024-01-15T06:27:38;99007.06;;;-2.96;100.00
61014;BME280;46899;47.542;19.082;2024-01-15T06:30:41;99018.06;;;-2.94;100.00
61014;BME280;46899;47.542;19.082;2024-01-15T06:33:45;99010.44;;;-2.89;100.00
61014;BME280;46899;47.542;19.082;2024-01-15T06:36:51;99020.59;;;-2.83;100.00
61014;BME280;46899;47.542;19.082;2024-01-15T06:39:53;99013.75;;;-2.67;100.00
61014;BME280;46899;47.542;19.082;2024-01-15T06:42:56;99022.25;;;-2.67;100.00
61014;BME280;46899;47.542;19.082;2024-01-15T06:46:02;99019.66;;;-2.61;100.00
61014;BME280;46899;47.542;19.082;2024-01-15T06:49:09;99017.09;;;-2.61;100.00
61014;BME280;46899;47.542;19.082;2024-01-15T06:52:12;99023.03;;;-2.56;100.00
61014;BME280;46899;47.542;19.082;2024-01-15T06:55:14;99023.88;;;-2.52;100.00
61014;BME280;46899;47.542;19.082;2024-01-15T06:58:17;99017.91;;;-2.45;100.00
61014;BME280;46899;47.542;19.082;2024-01-15T07:01:20;99019.59;;;-2.44;100.00
61014;BME280;46899;47.542;19.082;2024-01-15T07:04:23;99022.16;;;-2.43;100.00
61014;BME280;46899;47.542;19.082;2024-01-15T07:07:26;99019.56;;;-2.40;100.00
61014;BME280;46899;47.542;19.082;2024-01-15T07:10:31;99021.22;;;-2.30;100.00
61014;BME280;46899;47.542;19.082;2024-01-15T07:13:38;99023.72;;;-2.22;100.00
61014;BME280;46899;47.542;19.082;2024-01-15T07:16:41;99020.22;;;-2.06;100.00
61014;BME280;46899;47.542;19.082;2024-01-15T07:19:47;99023.59;;;-2.02;100.00
61014;BME280;46899;47.542;19.082;2024-01-15T07:22:50;99028.66;;;-1.96;100.00
61014;BME280;46899;47.542;19.082;2024-01-15T07:25:52;99040.59;;;-2.01;100.00
61014;BME280;46899;47.542;19.082;2024-01-15T07:28:56;99043.16;;;-2.03;100.00
61014;BME280;46899;47.542;19.082;2024-01-15T07:31:58;99046.53;;;-1.98;100.00
61014;BME280;46899;47.542;19.082;2024-01-15T07:35:01;99052.44;;;-1.96;100.00
61014;BME280;46899;47.542;19.082;2024-01-15T07:38:04;99050.69;;;-1.86;100.00
61014;BME280;46899;47.542;19.082;2024-01-15T07:41:06;99043.84;;;-1.77;100.00
61014;BME280;46899;47.542;19.082;2024-01-15T07:44:09;99054.88;;;-1.75;100.00
61014;BME280;46899;47.542;19.082;2024-01-15T07:47:12;99059.09;;;-1.72;100.00
61014;BME280;46899;47.542;19.082;2024-01-15T07:50:14;99072.72;;;-1.78;100.00
61014;BME280;46899;47.542;19.082;2024-01-15T07:53:17;99082.06;;;-1.78;100.00
61014;BME280;46899;47.542;19.082;2024-01-15T07:56:20;99084.63;;;-1.77;100.00
61014;BME280;46899;47.542;19.082;2024-01-15T07:59:23;99065.00;;;-1.69;100.00
61014;BME280;46899;47.542;19.082;2024-01-15T08:02:26;99061.53;;;-1.59;100.00
61014;BME280;46899;47.542;19.082;2024-01-15T08:05:29;99054.13;;;-0.90;100.00
61014;BME280;46899;47.542;19.082;2024-01-15T08:08:31;99054.75;;;-0.02;100.00
61014;BME280;46899;47.542;19.082;2024-01-15T08:11:34;99066.16;;;1.36;100.00
61014;BME280;46899;47.542;19.082;2024-01-15T08:14:37;99069.00;;;2.44;100.00
61014;BME280;46899;47.542;19.082;2024-01-15T08:17:40;99092.53;;;2.98;98.93
61014;BME280;46899;47.542;19.082;2024-01-15T08:20:42;99081.59;;;4.71;85.75
61014;BME280;46899;47.542;19.082;2024-01-15T08:23:45;99088.19;;;3.95;84.04
61014;BME280;46899;47.542;19.082;2024-01-15T08:26:48;99098.97;;;2.43;91.22
61014;BME280;46899;47.542;19.082;2024-01-15T08:29:51;99090.28;;;1.69;95.97
61014;BME280;46899;47.542;19.082;2024-01-15T08:32:53;99100.19;;;1.43;99.24
61014;BME280;46899;47.542;19.082;2024-01-15T08:35:58;99093.50;;;1.36;99.56
61014;BME280;46899;47.542;19.082;2024-01-15T08:39:00;99096.91;;;1.36;98.40
61014;BME280;46899;47.542;19.082;2024-01-15T08:42:04;99095.78;;;1.50;95.96
61014;BME280;46899;47.542;19.082;2024-01-15T08:45:07;99099.81;;;1.63;95.67
61014;BME280;46899;47.542;19.082;2024-01-15T08:48:10;99092.84;;;1.69;92.85
61014;BME280;46899;47.542;19.082;2024-01-15T08:51:12;99090.22;;;1.72;92.21
61014;BME280;46899;47.542;19.082;2024-01-15T08:54:15;99102.78;;;1.86;90.62
61014;BME280;46899;47.542;19.082;2024-01-15T08:57:18;99101.03;;;1.88;89.07
61014;BME280;46899;47.542;19.082;2024-01-15T09:00:21;99099.63;;;2.13;89.62
61014;BME280;46899;47.542;19.082;2024-01-15T09:03:23;99102.13;;;2.16;88.09
61014;BME280;46899;47.542;19.082;2024-01-15T09:06:26;99096.75;;;2.28;87.33
61014;BME280;46899;47.542;19.082;2024-01-15T09:09:28;99100.13;;;2.30;86.50
61014;BME280;46899;47.542;19.082;2024-01-15T09:12:32;99111.94;;;2.36;85.78
61014;BME280;46899;47.542;19.082;2024-01-15T09:15:34;99105.78;;;2.44;85.71
61014;BME280;46899;47.542;19.082;2024-01-15T09:18:37;99103.75;;;2.58;85.20
61014;BME280;46899;47.542;19.082;2024-01-15T09:21:39;99102.16;;;2.53;83.42
61014;BME280;46899;47.542;19.082;2024-01-15T09:24:42;99098.34;;;2.69;83.18
61014;BME280;46899;47.542;19.082;2024-01-15T09:27:45;99092.31;;;2.71;81.06
61014;BME280;46899;47.542;19.082;2024-01-15T09:30:48;99097.50;;;2.70;79.92
61014;BME280;46899;47.542;19.082;2024-01-15T09:33:51;99085.41;;;2.73;79.45
61014;BME280;46899;47.542;19.082;2024-01-15T09:36:59;99087.69;;;2.86;79.13
61014;BME280;46899;47.542;19.082;2024-01-15T09:40:02;99074.84;;;2.86;77.56
61014;BME280;46899;47.542;19.082;2024-01-15T09:43:06;99077.53;;;2.81;78.62
61014;BME280;46899;47.542;19.082;2024-01-15T09:46:09;99079.00;;;2.91;77.18
61014;BME280;46899;47.542;19.082;2024-01-15T09:49:13;99071.78;;;3.05;77.06
61014;BME280;46899;47.542;19.082;2024-01-15T09:52:16;99068.28;;;3.08;76.46
61014;BME280;46899;47.542;19.082;2024-01-15T09:55:21;99067.41;;;3.09;75.44
61014;BME280;46899;47.542;19.082;2024-01-15T09:58:24;99056.84;;;3.19;75.10
61014;BME280;46899;47.542;19.082;2024-01-15T10:01:27;99051.53;;;3.27;75.05
61014;BME280;46899;47.542;19.082;2024-01-15T10:04:31;99039.28;;;3.35;73.68
61014;BME280;46899;47.542;19.082;2024-01-15T10:07:34;99041.84;;;3.35;73.74
61014;BME280;46899;47.542;19.082;2024-01-15T10:10:38;99032.56;;;3.31;73.54
61014;BME280;46899;47.542;19.082;2024-01-15T10:13:40;99028.66;;;3.47;72.71
61014;BME280;46899;47.542;19.082;2024-01-15T10:16:43;99015.53;;;3.58;72.52
61014;BME280;46899;47.542;19.082;2024-01-15T10:19:46;99024.72;;;3.66;71.62
61014;BME280;46899;47.542;19.082;2024-01-15T10:22:52;99032.59;;;3.89;71.26
61014;BME280;46899;47.542;19.082;2024-01-15T10:25:56;99021.88;;;4.04;70.67
61014;BME280;46899;47.542;19.082;2024-01-15T10:28:59;99021.91;;;4.31;70.30
61014;BME280;46899;47.542;19.082;2024-01-15T10:32:08;99010.63;;;4.35;68.12
61014;BME280;46899;47.542;19.082;2024-01-15T10:35:13;99007.97;;;4.36;67.53
61014;BME280;46899;47.542;19.082;2024-01-15T10:38:16;99005.03;;;4.48;68.13
61014;BME280;46899;47.542;19.082;2024-01-15T10:41:20;99006.03;;;4.70;66.69
61014;BME280;46899;47.542;19.082;2024-01-15T10:44:23;99013.13;;;4.89;65.90
61014;BME280;46899;47.542;19.082;2024-01-15T10:47:26;99008.06;;;4.61;65.42
61014;BME280;46899;47.542;19.082;2024-01-15T10:50:29;99009.84;;;4.59;65.71
61014;BME280;46899;47.542;19.082;2024-01-15T10:53:32;99016.41;;;4.41;65.87
61014;BME280;46899;47.542;19.082;2024-01-15T10:56:35;99017.00;;;4.23;66.35
61014;BME280;46899;47.542;19.082;2024-01-15T10:59:38;99012.88;;;4.18;67.18
61014;BME280;46899;47.542;19.082;2024-01-15T11:02:40;99007.81;;;4.14;67.31
61014;BME280;46899;47.542;19.082;2024-01-15T11:05:44;98994.69;;;4.24;67.49
61014;BME280;46899;47.542;19.082;2024-01-15T11:08:50;98997.81;;;4.33;66.60
61014;BME280;46899;47.542;19.082;2024-01-15T11:12:06;99007.81;;;4.42;67.27
61014;BME280;46899;47.542;19.082;2024-01-15T11:15:09;99003.16;;;4.53;67.04
61014;BME280;46899;47.542;19.082;2024-01-15T11:18:12;99002.69;;;4.67;66.29
61014;BME280;46899;47.542;19.082;2024-01-15T11:24:39;98990.69;;;4.92;65.03
61014;BME280;46899;47.542;19.082;2024-01-15T11:27:46;98967.19;;;5.01;65.43
61014;BME280;46899;47.542;19.082;2024-01-15T11:30:56;98983.62;;;4.97;64.57
61014;BME280;46899;47.542;19.082;2024-01-15T11:33:58;98975.59;;;5.06;63.53
61014;BME280;46899;47.542;19.082;2024-01-15T11:37:02;98989.03;;;5.14;63.40
61014;BME280;46899;47.542;19.082;2024-01-15T11:40:06;98975.94;;;5.20;63.02
61014;BME280;46899;47.542;19.082;2024-01-15T11:43:13;98978.31;;;5.26;62.55
61014;BME280;46899;47.542;19.082;2024-01-15T11:46:19;98990.97;;;5.32;62.13
61014;BME280;46899;47.542;19.082;2024-01-15T11:52:44;98979.66;;;5.36;62.20
61014;BME280;46899;47.542;19.082;2024-01-15T11:55:52;98972.47;;;5.44;62.39
61014;BME280;46899;47.542;19.082;2024-01-15T11:58:57;98949.56;;;5.37;61.84
61014;BME280;46899;47.542;19.082;2024-01-15T12:02:02;98942.19;;;5.26;62.35
61014;BME280;46899;47.542;19.082;2024-01-15T12:05:06;98941.53;;;5.21;61.85
61014;BME280;46899;47.542;19.082;2024-01-15T12:08:10;98949.81;;;5.06;62.10
61014;BME280;46899;47.542;19.082;2024-01-15T12:11:14;98953.12;;;5.10;61.83
61014;BME280;46899;47.542;19.082;2024-01-15T12:14:20;98943.28;;;4.96;61.02
61014;BME280;46899;47.542;19.082;2024-01-15T12:17:23;98952.91;;;4.91;61.69
61014;BME280;46899;47.542;19.082;2024-01-15T12:20:26;98950.50;;;4.87;61.26
61014;BME280;46899;47.542;19.082;2024-01-15T12:23:28;98948.41;;;4.73;61.50
61014;BME280;46899;47.542;19.082;2024-01-15T12:26:31;98955.59;;;4.63;62.00
61014;BME280;46899;47.542;19.082;2024-01-15T12:29:34;98950.31;;;4.66;61.66
61014;BME280;46899;47.542;19.082;2024-01-15T12:32:36;98928.56;;;4.50;62.65
61014;BME280;46899;47.542;19.082;2024-01-15T12:35:39;98909.91;;;4.44;62.98
61014;BME280;46899;47.542;19.082;2024-01-15T12:38:42;98908.41;;;4.37;63.90
61014;BME280;46899;47.542;19.082;2024-01-15T12:41:46;98922.84;;;4.42;63.48
61014;BME280;46899;47.542;19.082;2024-01-15T12:44:48;98917.00;;;4.37;64.23
61014;BME280;46899;47.542;19.082;2024-01-15T12:47:52;98909.13;;;4.42;63.90
61014;BME280;46899;47.542;19.082;2024-01-15T12:50:55;98906.22;;;4.51;63.86
61014;BME280;46899;47.542;19.082;2024-01-15T12:53:58;98900.91;;;4.55;63.78
61014;BME280;46899;47.542;19.082;2024-01-15T12:57:00;98906.22;;;4.51;63.67
61014;BME280;46899;47.542;19.082;2024-01-15T13:00:04;98905.53;;;4.46;63.96
61014;BME280;46899;47.542;19.082;2024-01-15T13:03:09;98889.38;;;4.42;64.16
61014;BME280;46899;47.542;19.082;2024-01-15T13:06:12;98894.44;;;4.44;64.38
61014;BME280;46899;47.542;19.082;2024-01-15T13:09:14;98890.94;;;4.46;64.61
61014;BME280;46899;47.542;19.082;2024-01-15T13:12:17;98899.53;;;4.45;64.02
61014;BME280;46899;47.542;19.082;2024-01-15T13:15:19;98899.81;;;4.38;65.33
61014;BME280;46899;47.542;19.082;2024-01-15T13:18:22;98909.41;;;4.59;64.74
61014;BME280;46899;47.542;19.082;2024-01-15T13:21:25;98907.94;;;4.50;64.67
61014;BME280;46899;47.542;19.082;2024-01-15T13:24:27;98914.47;;;4.36;65.30
61014;BME280;46899;47.542;19.082;2024-01-15T13:27:30;98915.28;;;4.36;65.27
61014;BME280;46899;47.542;19.082;2024-01-15T13:30:33;98900.62;;;4.38;65.26
61014;BME280;46899;47.542;19.082;2024-01-15T13:33:36;98902.13;;;4.45;64.84
61014;BME280;46899;47.542;19.082;2024-01-15T13:36:42;98900.50;;;4.43;65.26
61014;BME280;46899;47.542;19.082;2024-01-15T13:39:44;98910.69;;;4.46;64.73
61014;BME280;46899;47.542;19.082;2024-01-15T13:42:47;98924.56;;;4.42;64.76
61014;BME280;46899;47.542;19.082;2024-01-15T13:45:51;98919.75;;;4.31;65.28
61014;BME280;46899;47.542;19.082;2024-01-15T13:48:54;98921.50;;;4.31;66.08
61014;BME280;46899;47.542;19.082;2024-01-15T13:51:57;98918.25;;;4.26;66.35
61014;BME280;46899;47.542;19.082;2024-01-15T13:55:00;98913.19;;;4.23;66.23
61014;BME280;46899;47.542;19.082;2024-01-15T13:58:03;98925.13;;;4.25;66.01
61014;BME280;46899;47.542;19.082;2024-01-15T14:01:08;98916.38;;;4.31;65.85
61014;BME280;46899;47.542;19.082;2024-01-15T14:04:11;98917.44;;;4.24;65.72
61014;BME280;46899;47.542;19.082;2024-01-15T14:07:15;98913.41;;;4.17;66.26
61014;BME280;46899;47.542;19.082;2024-01-15T14:10:20;98913.72;;;4.06;66.98
61014;BME280;46899;47.542;19.082;2024-01-15T14:13:23;98911.34;;;4.00;67.24
61014;BME280;46899;47.542;19.082;2024-01-15T14:16:25;98911.59;;;3.92;68.01
61014;BME280;46899;47.542;19.082;2024-01-15T14:19:28;98903.87;;;3.92;67.83
61014;BME280;46899;47.542;19.082;2024-01-15T14:22:31;98917.88;;;3.84;68.40
61014;BME280;46899;47.542;19.082;2024-01-15T14:25:33;98917.81;;;3.85;68.54
61014;BME280;46899;47.542;19.082;2024-01-15T14:28:37;98925.53;;;3.85;68.27
61014;BME280;46899;47.542;19.082;2024-01-15T14:31:41;98927.50;;;3.77;68.73
61014;BME280;46899;47.542;19.082;2024-01-15T14:34:44;98914.56;;;3.51;70.13
61014;BME280;46899;47.542;19.082;2024-01-15T14:37:47;98912.25;;;3.43;70.91
61014;BME280;46899;47.542;19.082;2024-01-15T14:40:51;98908.25;;;3.33;71.34
61014;BME280;46899;47.542;19.082;2024-01-15T14:43:54;98918.87;;;3.21;72.61
61014;BME280;46899;47.542;19.082;2024-01-15T14:46:57;98926.19;;;3.35;72.75
61014;BME280;46899;47.542;19.082;2024-01-15T14:50:01;98927.09;;;3.34;72.79
61014;BME280;46899;47.542;19.082;2024-01-15T14:53:04;98928.69;;;3.38;72.60
61014;BME280;46899;47.542;19.082;2024-01-15T14:56:06;98925.03;;;3.45;72.71
61014;BME280;46899;47.542;19.082;2024-01-15T14:59:10;98923.81;;;3.29;73.29
61014;BME280;46899;47.542;19.082;2024-01-15T15:02:13;98926.66;;;3.20;74.67
61014;BME280;46899;47.542;19.082;2024-01-15T15:05:17;98919.09;;;3.14;74.50
61014;BME280;46899;47.542;19.082;2024-01-15T15:08:19;98924.38;;;3.09;74.45
61014;BME280;46899;47.542;19.082;2024-01-15T15:11:22;98915.66;;;3.15;73.47
61014;BME280;46899;47.542;19.082;2024-01-15T15:14:25;98923.28;;;3.18;73.27
61014;BME280;46899;47.542;19.082;2024-01-15T15:17:27;98914.75;;;3.16;73.57
61014;BME280;46899;47.542;19.082;2024-01-15T15:20:30;98910.50;;;3.15;73.54
61014;BME280;46899;47.542;19.082;2024-01-15T15:23:34;98915.47;;;3.21;72.86
61014;BME280;46899;47.542;19.082;2024-01-15T15:26:36;98913.81;;;3.20;72.52
61014;BME280;46899;47.542;19.082;2024-01-15T15:29:39;98917.19;;;3.20;71.87
61014;BME280;46899;47.542;19.082;2024-01-15T15:32:42;98919.69;;;3.23;71.74
61014;BME280;46899;47.542;19.082;2024-01-15T15:35:45;98906.81;;;3.25;71.54
61014;BME280;46899;47.542;19.082;2024-01-15T15:38:48;98907.62;;;3.25;71.43
61014;BME280;46899;47.542;19.082;2024-01-15T15:41:51;98902.87;;;3.12;72.38
61014;BME280;46899;47.542;19.082;2024-01-15T15:44:54;98909.47;;;3.22;72.59
61014;BME280;46899;47.542;19.082;2024-01-15T15:48:01;98910.50;;;3.15;72.99
61014;BME280;46899;47.542;19.082;2024-01-15T15:51:03;98909.72;;;3.13;72.92
61014;BME280;46899;47.542;19.082;2024-01-15T15:54:06;98911.13;;;3.23;72.69
61014;BME280;46899;47.542;19.082;2024-01-15T15:57:09;98908.09;;;3.09;73.05
61014;BME280;46899;47.542;19.082;2024-01-15T16:00:12;98903.16;;;3.03;73.57
61014;BME280;46899;47.542;19.082;2024-01-15T16:03:16;98919.41;;;3.03;73.97